Tiempo atmosférico en la estación meteorológica de Carrión De Los Céspedes, Sevilla (76 m.)

Fecha
DESCASC
Temp. máxima en grados centígrados (hora)
DESCASC
Temp. mínima en grados centígrados (hora)
DESCASC
Temp. media en grados centígrados
DESCASC
Racha de viento máxima en m/sg (hora)
DESCASC
Velocidad máxima media en intervalos de 10 minutos(hora)
DESCASC
Precipitaciones diarias en mm
DESCASC
Precipitaciones de 00:00 a 06:00 en mm
DESCASC
Precipitaciones de 06:00 a 12:00 en mm
DESCASC
Precipitaciones de 12:00 a 18:00 en mm
DESCASC
Precipitaciones de 18:00 a 24:00 en mm
DESCASC
19-10-2017 23.3 (16:30) 15.6 (02:10) 19.4 8.33 (00:40) 5 (16:40) 1.2 1.2 0 0 0
18-10-2017 21.9 (16:30) 15.7 (07:20) 18.8 8.06 (16:50) 5 (17:30) 10.2 3.2 6.2 0 0.8
17-10-2017 25.7 (14:00) 17.6 (07:40) 21.7 10.56 (12:30) 5.83 (14:50) 2.6 0 0 2.6 0
16-10-2017 29.5 (16:00) 14.4 (02:40) 21.9 8.33 (16:20) 4.72 (16:20) 0 0 0 0 0
15-10-2017 33.7 (15:50) 15.9 (00:00) 24.8 8.61 (18:10) 5.28 (18:10) 0 0 0 0 0
14-10-2017 33.8 (16:20) 16.2 (00:00) 25 6.11 (13:40) 3.89 (13:40) 0 0 0 0 0
13-10-2017 34.7 (17:50) 15.3 (00:00) 25 5.83 (18:20) 3.89 (18:20) 0 0 0 0 0
12-10-2017 33.7 (17:40) 17.7 (00:00) 25.7 7.78 (16:30) 3.89 (15:00) 0 0 0 0 0
11-10-2017 32.8 (16:50) 13.2 (00:00) 23 7.22 (11:10) 4.72 (12:00) 0 0 0 0 0
10-10-2017 32 (17:00) 13.4 (00:00) 22.7 4.72 (20:30) 2.78 (20:30) 0 0 0 0 0
09-10-2017 33.6 (17:30) 12.8 (00:00) 23.2 7.5 (18:20) 4.72 (18:20) 0 0 0 0 0
08-10-2017 32.7 (17:10) 14.4 (06:50) 23.6 7.22 (11:10) 3.89 (11:20) 0 0 0 0 0
07-10-2017 32.5 (15:50) 13.5 (07:30) 23 7.5 (17:40) 4.44 (17:30) 0 0 0 0 0
06-10-2017 35.4 (17:50) 14.4 (07:20) 24.9 7.78 (18:10) 5 (18:40) 0 0 0 0 0

Gráficas

Temp. máximas Temp. mínimas Temp. medias Precipitaciones Rachas de viento máximas Velocidades máximas media en intervalos de 10 minutos

Datos horarios

Fecha y hora oficial Temperatura (ºC) Velocidad del viento (km/h) Dirección del viento Racha (km/h) Dirección de racha Precipitación (mm) Presión (hPa) Tendencia (hPa) Humedad (%)
2017-10-19 23:00:00 17.8 3 Oeste 6 Oeste 0 -- -- 84
2017-10-19 22:00:00 19.3 5 Noroeste 14 Noroeste 0 -- -- 77
2017-10-19 21:00:00 20.2 8 Oeste 19 Oeste 0 -- -- 71
2017-10-19 20:00:00 21 12 Oeste 25 Oeste 0 -- -- 67
2017-10-19 19:00:00 22.7 15 Noroeste 27 Noroeste 0 -- -- 56
2017-10-19 18:00:00 22.9 17 Noroeste 26 Oeste 0 -- -- 59
2017-10-19 17:00:00 22.5 12 Noroeste 28 Noroeste 0 -- -- 63
2017-10-19 16:00:00 22.1 15 Noroeste 25 Noroeste 0 -- -- 64
2017-10-19 15:00:00 22.6 11 Oeste 24 Oeste 0 -- -- 64
2017-10-19 14:00:00 21.1 8 Oeste 15 Oeste 0 -- -- 68
2017-10-19 13:00:00 20.5 3 Norte 9 Oeste 0 -- -- 69
2017-10-19 12:00:00 19.9 4 Este 6 Oeste 0 -- -- 77
2017-10-19 11:00:00 17.6 4 Oeste 5 Oeste 0 -- -- 89
2017-10-19 10:00:00 16.5 0 Calma 2 Sudoeste 0 -- -- 96
2017-10-19 09:00:00 16.2 0 Calma 6 Noroeste 0 -- -- 97
2017-10-19 08:00:00 16.1 3 Noroeste 5 Noroeste 0 -- -- 97
2017-10-19 07:00:00 16 0 Calma 6 Oeste 0 -- -- 97
2017-10-19 06:00:00 15.9 0 Calma 8 Noroeste 0 -- -- 97
2017-10-19 05:00:00 15.8 2 Sudoeste 5 Sudeste 0 -- -- 97
2017-10-19 04:00:00 15.7 3 Sudeste 8 Sur 0 -- -- 97
2017-10-19 03:00:00 15.7 3 Sudeste 8 Noroeste 0.4 -- -- 95
2017-10-19 02:00:00 15.7 6 Noroeste 19 Oeste 0.4 -- -- 94
2017-10-19 01:00:00 16.5 15 Oeste 30 Oeste 0.4 -- -- 90
2017-10-19 00:00:00 17.7 5 Sudoeste 8 Sudoeste 0 -- -- 95
2017-10-18 23:00:00 17.8 5 Sudoeste 12 Sudoeste 0.2 -- -- 94
2017-10-18 22:00:00 18 7 Oeste 17 Oeste 0.4 -- -- 92
2017-10-18 21:00:00 18.3 5 Sudoeste 19 Oeste 0.2 -- -- 88
2017-10-18 20:00:00 18.8 7 Sudoeste 18 Sudoeste 0 -- -- 83
2017-10-18 19:00:00 19.6 8 Oeste 23 Oeste 0 -- -- 79
2017-10-18 18:00:00 20.5 15 Oeste 29 Sudoeste 0 -- -- 72
2017-10-18 17:00:00 21.9 14 Sudoeste 29 Sudoeste 0 -- -- 64
2017-10-18 16:00:00 21 17 Oeste 26 Oeste 0 -- -- 66
2017-10-18 15:00:00 20.3 14 Oeste 26 Oeste 0 -- -- 69
2017-10-18 14:00:00 19.9 10 Oeste 19 Oeste 0 -- -- 75
2017-10-18 13:00:00 19.2 10 Oeste 15 Oeste 0 -- -- 78
2017-10-18 12:00:00 18.5 12 Noroeste 19 Oeste 0 -- -- 85
2017-10-18 11:00:00 17.2 4 Noroeste 12 Noroeste 0 -- -- 96
2017-10-18 10:00:00 16.2 3 Oeste 11 Sudoeste 0 -- -- 97
2017-10-18 09:00:00 15.8 6 Sudoeste 14 Sudoeste 0 -- -- 96
2017-10-18 08:00:00 15.8 6 Sudoeste 11 Sudoeste 2.8 -- -- 96
2017-10-18 07:00:00 15.8 5 Sudoeste 12 Oeste 3.4 -- -- 94
2017-10-18 06:00:00 16.3 6 Oeste 13 Oeste 2.8 -- -- 91
2017-10-18 05:00:00 17.5 0 Calma 11 Noroeste 0.4 -- -- 88
2017-10-18 04:00:00 18.1 8 Oeste 16 Oeste 0 -- -- 82
2017-10-18 03:00:00 18.4 2 Sudoeste 13 Sudoeste 0 -- -- 87
2017-10-18 02:00:00 18.8 8 Oeste 20 Oeste 0 -- -- 85
2017-10-18 01:00:00 19.1 13 Sudoeste 21 Sudoeste 0 -- -- 86
2017-10-18 00:00:00 18.9 6 Oeste 14 Oeste 0 -- -- 86
2017-10-17 23:00:00 19 9 Sudoeste 15 Sudoeste 0 -- -- 83
2017-10-17 22:00:00 19.2 8 Sudoeste 19 Sudoeste 0 -- -- 81
2017-10-17 21:00:00 19.8 9 Sudoeste 19 Sudoeste 0 -- -- 77
2017-10-17 20:00:00 20.5 8 Sudoeste 17 Sudoeste 0 -- -- 78
2017-10-17 19:00:00 21.7 9 Sudoeste 17 Sudoeste 0 -- -- 75
2017-10-17 18:00:00 22.1 8 Sudoeste 17 Sudoeste 0 -- -- 79
2017-10-17 17:00:00 22.4 11 Sudoeste 24 Oeste 0 -- -- 75
2017-10-17 16:00:00 21.4 14 Oeste 27 Oeste 2.4 -- -- 86
2017-10-17 15:00:00 22.1 19 Noroeste 34 Sudoeste 0.2 -- -- 83
2017-10-17 14:00:00 25.7 16 Sudoeste 33 Sudoeste 0 -- -- 58
2017-10-17 13:00:00 23.7 17 Sudoeste 38 Sur 0 -- -- 64
2017-10-17 12:00:00 21.4 12 Sur 30 Sur 0 -- -- 75
2017-10-17 11:00:00 21.8 14 Sur 26 Sur 0 -- -- 71
2017-10-17 10:00:00 20.3 12 Sudoeste 23 Sur 0 -- -- 76
2017-10-17 09:00:00 19.9 12 Sudoeste 19 Sudoeste 0 -- -- 79
2017-10-17 08:00:00 17.8 2 Sur 5 Sudoeste 0 -- -- 82
2017-10-17 07:00:00 18.2 3 Oeste 5 Oeste 0 -- -- 72
2017-10-17 06:00:00 19.1 4 Noroeste 7 Noroeste 0 -- -- 68
2017-10-17 05:00:00 19.3 4 Oeste 6 Oeste 0 -- -- 70
2017-10-17 04:00:00 19.8 4 Oeste 6 Oeste 0 -- -- 68
2017-10-17 03:00:00 20.4 3 Oeste 6 Noroeste 0 -- -- 67
2017-10-17 02:00:00 21.2 5 Nordeste 12 Este 0 -- -- 64
2017-10-17 01:00:00 21.7 0 Calma 8 Sudeste 0 -- -- 63
2017-10-17 00:00:00 22.2 4 Sur 14 Sur 0 -- -- 61
2017-10-16 23:00:00 22.8 4 Sur 11 Sur 0 -- -- 59
2017-10-16 22:00:00 23.7 6 Sur 14 Sudoeste 0 -- -- 55
2017-10-16 21:00:00 24.7 6 Sur 15 Sudoeste 0 -- -- 51
2017-10-16 20:00:00 25.6 9 Sur 20 Sur 0 -- -- 49
2017-10-16 19:00:00 26.7 10 Sur 23 Sur 0 -- -- 48
2017-10-16 18:00:00 27.9 15 Sur 26 Sudoeste 0 -- -- 44
2017-10-16 17:00:00 29.2 15 Sudoeste 30 Sur 0 -- -- 41
2017-10-16 16:00:00 29.5 15 Sur 27 Sur 0 -- -- 39
2017-10-16 15:00:00 29.1 15 Sur 28 Sudoeste 0 -- -- 37
2017-10-16 14:00:00 27.8 9 Sur 22 Sudeste 0 -- -- 40
2017-10-16 13:00:00 26.9 8 Sur 17 Sur 0 -- -- 41
2017-10-16 12:00:00 25.3 7 Este 15 Sudeste 0 -- -- 45
2017-10-16 11:00:00 22.2 8 Nordeste 18 Nordeste 0 -- -- 55
2017-10-16 10:00:00 19.8 3 Norte 7 Noroeste 0 -- -- 64
2017-10-16 09:00:00 17 3 Noroeste 10 Noroeste 0 -- -- 71
2017-10-16 08:00:00 17.8 5 Noroeste 24 Nordeste 0 -- -- 62
2017-10-16 07:00:00 19.1 8 Nordeste 21 Nordeste 0 -- -- 64
2017-10-16 06:00:00 19.5 10 Nordeste 23 Nordeste 0 -- -- 55
2017-10-16 05:00:00 20 9 Nordeste 17 Nordeste 0 -- -- 43
2017-10-16 04:00:00 19 5 Este 15 Nordeste 0 -- -- 43
2017-10-16 03:00:00 15 2 Noroeste 9 Noroeste 0 -- -- 56
2017-10-16 02:00:00 15.1 0 Calma 6 Noroeste 0 -- -- 61
2017-10-16 01:00:00 16.7 4 Noroeste 9 Sudoeste 0 -- -- 57
2017-10-16 00:00:00 19.7 0 Calma 7 Sudeste 0 -- -- 51
2017-10-15 23:00:00 21.7 3 Sudeste 11 Sur 0 -- -- 49
2017-10-15 22:00:00 23.6 6 Sudeste 10 Sur 0 -- -- 42
2017-10-15 21:00:00 26.1 6 Sudeste 17 Sudoeste 0 -- -- 38
2017-10-15 20:00:00 28.9 11 Sur 26 Sur 0 -- -- 32
2017-10-15 19:00:00 31.4 16 Sur 31 Sur 0 -- -- 27
2017-10-15 18:00:00 32.9 15 Sur 31 Sur 0 -- -- 25
2017-10-15 17:00:00 33.3 13 Sudeste 26 Sur 0 -- -- 26
2017-10-15 16:00:00 33.5 17 Sudeste 27 Sudeste 0 -- -- 24
2017-10-15 15:00:00 32.9 13 Sudeste 21 Este 0 -- -- 24
2017-10-15 14:00:00 31.5 10 Este 18 Este 0 -- -- 28
2017-10-15 13:00:00 29.4 9 Este 16 Este 0 -- -- 31
2017-10-15 12:00:00 26.8 13 Este 21 Norte 0 -- -- 36
2017-10-15 11:00:00 24.1 13 Nordeste 23 Nordeste 0 -- -- 37
2017-10-15 10:00:00 21.6 4 Oeste 13 Nordeste 0 -- -- 41
2017-10-15 09:00:00 19 5 Noroeste 14 Este 0 -- -- 46
2017-10-15 08:00:00 20.2 6 Este 19 Este 0 -- -- 43
2017-10-15 07:00:00 20.1 9 Este 19 Nordeste 0 -- -- 45
2017-10-15 06:00:00 17.2 3 Norte 10 Nordeste 0 -- -- 55
2017-10-15 05:00:00 16 6 Noroeste 10 Norte 0 -- -- 56
2017-10-15 04:00:00 16 7 Noroeste 8 Noroeste 0 -- -- 57
2017-10-15 03:00:00 17.9 0 Calma 12 Sudeste 0 -- -- 56
2017-10-15 02:00:00 18.7 2 Sudoeste 6 Norte 0 -- -- 53
2017-10-15 01:00:00 20 5 Noroeste 8 Norte 0 -- -- 47
2017-10-15 00:00:00 21.5 2 Norte 11 Noroeste 0 -- -- 46
2017-10-14 23:00:00 22.8 3 Noroeste 9 Norte 0 -- -- 44
2017-10-14 22:00:00 24.8 4 Oeste 10 Sudoeste 0 -- -- 42
2017-10-14 21:00:00 26.8 6 Noroeste 11 Noroeste 0 -- -- 37
2017-10-14 20:00:00 28.9 2 Noroeste 5 Sur 0 -- -- 34
2017-10-14 19:00:00 31.8 4 Sudoeste 12 Sur 0 -- -- 28
2017-10-14 18:00:00 33 8 Sur 17 Sur 0 -- -- 25
2017-10-14 17:00:00 32.9 7 Sudeste 16 Sudeste 0 -- -- 25
2017-10-14 16:00:00 33.4 7 Sur 14 Sur 0 -- -- 24
2017-10-14 15:00:00 32.3 5 Este 20 Este 0 -- -- 25
2017-10-14 14:00:00 30.7 12 Nordeste 22 Nordeste 0 -- -- 28
2017-10-14 13:00:00 28.5 9 Este 14 Este 0 -- -- 34
2017-10-14 12:00:00 26.2 7 Sudeste 12 Norte 0 -- -- 39
2017-10-14 11:00:00 23.8 6 Norte 11 Noroeste 0 -- -- 43
2017-10-14 10:00:00 21.5 3 Noroeste 10 Este 0 -- -- 47
2017-10-14 09:00:00 19.6 4 Oeste 12 Norte 0 -- -- 51
2017-10-14 08:00:00 18.8 6 Norte 12 Noroeste 0 -- -- 53
2017-10-14 07:00:00 17.5 5 Noroeste 9 Noroeste 0 -- -- 54
2017-10-14 06:00:00 16.8 4 Noroeste 8 Noroeste 0 -- -- 56
2017-10-14 05:00:00 16.6 2 Noroeste 6 Noroeste 0 -- -- 54
2017-10-14 04:00:00 16.3 3 Noroeste 5 Noroeste 0 -- -- 55
2017-10-14 03:00:00 17 3 Noroeste 6 Noroeste 0 -- -- 53
2017-10-14 02:00:00 17.8 3 Norte 4 Norte 0 -- -- 51
2017-10-14 01:00:00 19 3 Noroeste 6 Norte 0 -- -- 47
2017-10-14 00:00:00 21.4 2 Oeste 4 Oeste 0 -- -- 44
2017-10-13 23:00:00 23.5 3 Norte 10 Oeste 0 -- -- 40
2017-10-13 22:00:00 25.1 6 Noroeste 14 Noroeste 0 -- -- 36
2017-10-13 21:00:00 26.4 4 Noroeste 12 Noroeste 0 -- -- 33
2017-10-13 20:00:00 29.4 6 Oeste 20 Sudoeste 0 -- -- 29
2017-10-13 19:00:00 32.8 13 Oeste 21 Sudoeste 0 -- -- 26
2017-10-13 18:00:00 34.4 13 Sudoeste 21 Sur 0 -- -- 25
2017-10-13 17:00:00 34.2 8 Sudoeste 20 Sudoeste 0 -- -- 26
2017-10-13 16:00:00 34 5 Sudoeste 16 Sudoeste 0 -- -- 26
2017-10-13 15:00:00 32.7 6 Oeste 15 Sur 0 -- -- 27
2017-10-13 14:00:00 30.8 6 Sudeste 13 Sudeste 0 -- -- 30
2017-10-13 13:00:00 29 5 Este 12 Este 0 -- -- 32
2017-10-13 12:00:00 26.1 5 Este 13 Nordeste 0 -- -- 37
2017-10-13 11:00:00 23.1 4 Nordeste 8 Nordeste 0 -- -- 47
2017-10-13 10:00:00 19.2 3 Noroeste 6 Noroeste 0 -- -- 61
2017-10-13 09:00:00 16.5 0 Calma 6 Noroeste 0 -- -- 68
2017-10-13 08:00:00 15.7 3 Noroeste 8 Noroeste 0 -- -- 70
2017-10-13 07:00:00 15.5 3 Noroeste 8 Noroeste 0 -- -- 71
2017-10-13 06:00:00 15.6 4 Noroeste 5 Noroeste 0 -- -- 73
2017-10-13 05:00:00 16.5 3 Norte 5 Norte 0 -- -- 69
2017-10-13 04:00:00 16.5 0 Calma 4 Norte 0 -- -- 73
2017-10-13 03:00:00 17.1 0 Calma 6 Norte 0 -- -- 72
2017-10-13 02:00:00 18.3 2 Norte 8 Norte 0 -- -- 67
2017-10-13 01:00:00 19.3 4 Norte 7 Norte 0 -- -- 68
2017-10-13 00:00:00 20.1 3 Noroeste 7 Noroeste 0 -- -- 63
2017-10-12 23:00:00 21.8 5 Noroeste 10 Noroeste 0 -- -- 56
2017-10-12 22:00:00 23.4 4 Norte 9 Norte 0 -- -- 48
2017-10-12 21:00:00 25.7 3 Norte 10 Oeste 0 -- -- 45
2017-10-12 20:00:00 29.8 5 Sudoeste 20 Sudoeste 0 -- -- 38
2017-10-12 19:00:00 32.4 9 Sudoeste 22 Oeste 0 -- -- 33
2017-10-12 18:00:00 33.5 11 Sur 24 Sudeste 0 -- -- 29
2017-10-12 17:00:00 33.4 14 Sur 28 Sudeste 0 -- -- 29
2017-10-12 16:00:00 32.9 10 Sur 23 Sur 0 -- -- 32
2017-10-12 15:00:00 31.6 14 Sur 26 Sudeste 0 -- -- 33
2017-10-12 14:00:00 30.4 12 Sur 21 Sur 0 -- -- 34
2017-10-12 13:00:00 28.8 10 Sudeste 23 Sur 0 -- -- 36
2017-10-12 12:00:00 27 7 Sur 17 Sur 0 -- -- 38
2017-10-12 11:00:00 24.3 4 Este 7 Este 0 -- -- 43
2017-10-12 10:00:00 20.1 3 Noroeste 8 Noroeste 0 -- -- 48
2017-10-12 09:00:00 18.2 4 Noroeste 9 Oeste 0 -- -- 53
2017-10-12 08:00:00 18.2 4 Noroeste 9 Norte 0 -- -- 53
2017-10-12 07:00:00 18.8 3 Noroeste 9 Oeste 0 -- -- 51
2017-10-12 06:00:00 19.3 2 Noroeste 12 Oeste 0 -- -- 50
2017-10-12 05:00:00 19.4 3 Noroeste 8 Nordeste 0 -- -- 51
2017-10-12 04:00:00 19.7 3 Norte 9 Noroeste 0 -- -- 52
2017-10-12 03:00:00 18.4 4 Noroeste 9 Norte 0 -- -- 54
2017-10-12 02:00:00 18.1 0 Calma 8 Oeste 0 -- -- 59
2017-10-12 01:00:00 18.8 4 Noroeste 6 Norte 0 -- -- 56
2017-10-12 00:00:00 20.1 6 Noroeste 9 Noroeste 0 -- -- 52
2017-10-11 23:00:00 23.1 4 Sudeste 10 Este 0 -- -- 49
2017-10-11 22:00:00 25.2 3 Sudeste 12 Sur 0 -- -- 47
2017-10-11 21:00:00 25.6 3 Sudeste 6 Sur 0 -- -- 43
2017-10-11 20:00:00 28.5 0 Calma 15 Sudoeste 0 -- -- 39
2017-10-11 19:00:00 30.5 4 Sur 9 Sur 0 -- -- 33
2017-10-11 18:00:00 32.1 6 Sur 13 Sudeste 0 -- -- 25
2017-10-11 17:00:00 32.3 8 Sudeste 15 Sudeste 0 -- -- 26
2017-10-11 16:00:00 32.2 7 Sur 17 Sudeste 0 -- -- 26
2017-10-11 15:00:00 31 7 Sudeste 17 Este 0 -- -- 30
2017-10-11 14:00:00 29.7 11 Este 22 Este 0 -- -- 32
2017-10-11 13:00:00 27.6 17 Este 26 Este 0 -- -- 38
2017-10-11 12:00:00 25.1 17 Este 26 Este 0 -- -- 43
2017-10-11 11:00:00 22 11 Nordeste 22 Este 0 -- -- 48
2017-10-11 10:00:00 18.6 4 Noroeste 10 Oeste 0 -- -- 56
2017-10-11 09:00:00 15.6 4 Noroeste 8 Norte 0 -- -- 63
2017-10-11 08:00:00 15 3 Noroeste 6 Oeste 0 -- -- 65
2017-10-11 07:00:00 13.8 4 Oeste 8 Oeste 0 -- -- 70
2017-10-11 06:00:00 13.4 3 Noroeste 9 Norte 0 -- -- 67
2017-10-11 05:00:00 13.3 2 Noroeste 5 Noroeste 0 -- -- 67
2017-10-11 04:00:00 13.9 0 Calma 2 Norte 0 -- -- 67
2017-10-11 03:00:00 14.7 0 Calma 6 Noroeste 0 -- -- 69
2017-10-11 02:00:00 15.4 3 Noroeste 8 Noroeste 0 -- -- 65
2017-10-11 01:00:00 16.6 0 Calma 3 Noroeste 0 -- -- 61
2017-10-11 00:00:00 18.3 0 Calma 7 Norte 0 -- -- 59
2017-10-10 23:00:00 19.9 2 Norte 5 Oeste 0 -- -- 55
2017-10-10 22:00:00 22.4 2 Noroeste 12 Norte 0 -- -- 49
2017-10-10 21:00:00 24.6 8 Norte 17 Oeste 0 -- -- 44
2017-10-10 20:00:00 27.8 6 Noroeste 15 Oeste 0 -- -- 42
2017-10-10 19:00:00 31.1 7 Oeste 15 Oeste 0 -- -- 29
2017-10-10 18:00:00 31.6 6 Sur 15 Sudoeste 0 -- -- 30
2017-10-10 17:00:00 32 8 Sur 15 Sudoeste 0 -- -- 33
2017-10-10 16:00:00 31.4 8 Sudeste 14 Sur 0 -- -- 34
2017-10-10 15:00:00 29.8 6 Sudeste 12 Sudeste 0 -- -- 37
2017-10-10 14:00:00 28.1 3 Norte 10 Sudoeste 0 -- -- 42
2017-10-10 13:00:00 25.7 4 Sudeste 12 Este 0 -- -- 49
2017-10-10 12:00:00 22.7 6 Nordeste 12 Nordeste 0 -- -- 62
2017-10-10 11:00:00 19.6 5 Nordeste 8 Norte 0 -- -- 72
2017-10-10 10:00:00 16.4 3 Norte 6 Norte 0 -- -- 93
2017-10-10 09:00:00 15.7 3 Noroeste 6 Noroeste 0 -- -- 94
2017-10-10 08:00:00 15.9 4 Noroeste 5 Oeste 0 -- -- 83
2017-10-10 07:00:00 14.8 0 Calma 6 Noroeste 0 -- -- 92
2017-10-10 06:00:00 13.4 3 Noroeste 6 Noroeste 0 -- -- 82
2017-10-10 05:00:00 14 2 Noroeste 4 Noroeste 0 -- -- 86
2017-10-10 04:00:00 15.6 4 Este 5 Nordeste 0 -- -- 89
2017-10-10 03:00:00 16.4 4 Este 8 Sudeste 0 -- -- 85
2017-10-10 02:00:00 16.6 4 Sudeste 9 Sudeste 0 -- -- 78
2017-10-10 01:00:00 17.1 8 Sudeste 10 Sudeste 0 -- -- 74